Time;durP1;ratioP1;P1;durP2;ratioP2;P2;SDS_P1;SDS_P2;PMS_P1;PMS_P2;Temp;Humidity;BMP_temperature;BMP_pressure;BME280_temperature;BME280_humidity;BME280_pressure;Samples;Min_cycle;Max_cycle;Signal;HPM_P1;HPM_P2
2023/12/09 00:00:48;;;;;;;20.05;10.88;;;;;;;-12.40;66.43;100850.56;5096632;28;20109;-64
2023/12/09 00:03:14;;;;;;;20.02;9.32;;;;;;;-12.36;65.69;100852.09;5108552;28;20497;-60
2023/12/09 00:05:39;;;;;;;16.20;8.52;;;;;;;-12.37;65.62;100847.91;5111719;28;20040;-63
2023/12/09 00:08:05;;;;;;;23.38;9.70;;;;;;;-12.34;65.32;100846.13;5108895;28;20062;-62
2023/12/09 00:10:31;;;;;;;22.60;11.00;;;;;;;-12.31;65.02;100844.28;5111328;28;20043;-62
2023/12/09 00:12:57;;;;;;;24.35;10.40;;;;;;;-12.28;65.36;100856.97;5110228;28;20511;-62
2023/12/09 00:15:22;;;;;;;23.80;10.57;;;;;;;-12.30;65.34;100851.06;5110379;28;20040;-61
2023/12/09 00:17:48;;;;;;;19.77;10.50;;;;;;;-12.38;65.77;100847.94;5110215;28;20528;-62
2023/12/09 00:20:14;;;;;;;25.73;11.65;;;;;;;-12.36;66.76;100848.72;5111922;28;20043;-62
2023/12/09 00:22:41;;;;;;;14.65;7.40;;;;;;;-12.46;66.22;100842.28;5104236;28;20040;-65
2023/12/09 00:25:07;;;;;;;19.00;9.77;;;;;;;-12.39;65.28;100830.94;5111827;28;20088;-62
2023/12/09 00:27:33;;;;;;;19.90;9.43;;;;;;;-12.48;65.83;100836.41;5093056;28;20493;-62
2023/12/09 00:29:59;;;;;;;25.40;10.45;;;;;;;-12.49;65.67;100833.00;5111806;28;20073;-64
2023/12/09 00:32:25;;;;;;;22.70;9.85;;;;;;;-12.54;65.42;100821.28;5111273;28;20166;-62
2023/12/09 00:34:50;;;;;;;19.55;9.10;;;;;;;-12.52;65.57;100822.91;5111570;28;20497;-63
2023/12/09 00:37:16;;;;;;;18.00;8.40;;;;;;;-12.55;66.36;100820.47;5097021;28;20040;-62
2023/12/09 00:39:41;;;;;;;27.55;10.80;;;;;;;-12.52;66.71;100817.81;5111370;28;20040;-62
2023/12/09 00:42:07;;;;;;;17.85;9.73;;;;;;;-12.48;67.15;100818.50;5111301;28;20047;-61
2023/12/09 00:44:33;;;;;;;22.45;10.18;;;;;;;-12.30;67.03;100815.28;5093421;28;20130;-61
2023/12/09 00:46:58;;;;;;;25.08;10.32;;;;;;;-12.34;66.28;100815.47;5052950;28;20063;-62
2023/12/09 00:49:24;;;;;;;25.40;11.10;;;;;;;-12.23;66.38;100814.19;5070111;28;20052;-62
2023/12/09 00:51:49;;;;;;;24.45;10.07;;;;;;;-12.31;66.39;100800.03;5076913;28;20042;-61
2023/12/09 00:54:15;;;;;;;24.50;12.48;;;;;;;-12.28;67.15;100803.28;5103821;28;20511;-62
2023/12/09 00:56:41;;;;;;;24.25;10.15;;;;;;;-12.28;67.10;100805.84;5095087;28;20036;-62
2023/12/09 00:59:07;;;;;;;26.63;11.23;;;;;;;-12.46;67.11;100811.63;5098052;28;20076;-62
2023/12/09 01:01:35;;;;;;;20.55;11.07;;;;;;;-12.40;66.88;100794.34;5091908;28;20036;-63
2023/12/09 01:04:01;;;;;;;30.73;12.35;;;;;;;-12.31;66.68;100798.28;5097974;28;20474;-62
2023/12/09 01:06:28;;;;;;;27.75;12.27;;;;;;;-12.42;66.99;100800.41;5094208;28;20036;-62
2023/12/09 01:08:54;;;;;;;20.23;8.40;;;;;;;-12.59;66.87;100795.91;5098550;28;20044;-61
2023/12/09 01:11:20;;;;;;;22.35;11.40;;;;;;;-12.77;67.55;100787.19;5099679;28;20044;-63
2023/12/09 01:13:45;;;;;;;12.50;7.78;;;;;;;-12.85;67.11;100789.16;5093939;28;20317;-63
2023/12/09 01:16:11;;;;;;;21.35;9.25;;;;;;;-12.91;67.91;100790.25;5108760;27;20068;-63
2023/12/09 01:18:36;;;;;;;23.67;9.55;;;;;;;-12.88;67.43;100785.03;5073502;28;20048;-62
2023/12/09 01:21:03;;;;;;;24.92;9.82;;;;;;;-12.95;67.41;100778.47;5099934;28;20081;-62
2023/12/09 01:23:28;;;;;;;21.25;10.05;;;;;;;-12.87;66.76;100783.31;5093961;28;20044;-62
2023/12/09 01:25:54;;;;;;;20.65;9.30;;;;;;;-13.00;67.53;100782.88;5111162;28;20042;-63
2023/12/09 01:28:20;;;;;;;24.35;10.05;;;;;;;-13.03;68.31;100780.44;5084357;27;20059;-60
2023/12/09 01:30:45;;;;;;;18.08;9.05;;;;;;;-13.08;68.04;100783.16;5102817;28;20043;-64
2023/12/09 01:33:11;;;;;;;19.02;9.50;;;;;;;-13.08;68.41;100785.72;5084068;28;20132;-61
2023/12/09 01:35:36;;;;;;;25.80;9.02;;;;;;;-13.38;67.36;100745.97;5106246;28;20062;-64
2023/12/09 01:38:02;;;;;;;15.77;8.02;;;;;;;-13.15;67.27;100784.25;5105502;28;20405;-62
2023/12/09 01:40:28;;;;;;;22.27;7.93;;;;;;;-13.19;68.22;100779.31;5104335;28;20046;-64
2023/12/09 01:42:54;;;;;;;20.10;8.85;;;;;;;-13.32;68.76;100771.28;5078961;28;20465;-62
2023/12/09 01:45:20;;;;;;;16.83;8.10;;;;;;;-13.38;67.73;100776.56;5089689;28;20040;-63
2023/12/09 01:47:47;;;;;;;18.83;8.32;;;;;;;-13.38;68.92;100777.44;5110800;28;20043;-62
2023/12/09 01:50:14;;;;;;;23.05;9.23;;;;;;;-13.34;68.81;100773.03;5075794;28;20063;-61
2023/12/09 01:52:40;;;;;;;16.80;9.00;;;;;;;-13.40;67.48;100780.91;5085527;28;20072;-62
2023/12/09 01:55:08;;;;;;;16.30;7.93;;;;;;;-13.52;68.73;100779.59;5088618;28;20165;-61
2023/12/09 01:57:33;;;;;;;15.48;7.05;;;;;;;-13.52;68.59;100777.88;5079223;28;20067;-61
2023/12/09 01:59:59;;;;;;;17.52;8.13;;;;;;;-13.58;68.37;100772.16;5090046;28;20036;-63
2023/12/09 02:02:25;;;;;;;22.98;8.75;;;;;;;-13.60;68.95;100771.34;5114287;28;20043;-61
2023/12/09 02:04:51;;;;;;;19.50;7.70;;;;;;;-13.61;68.40;100773.06;5075443;28;20044;-63
2023/12/09 02:07:17;;;;;;;13.32;6.68;;;;;;;-13.58;68.72;100761.94;5103083;28;20051;-61
2023/12/09 02:09:43;;;;;;;19.60;9.15;;;;;;;-13.53;69.08;100768.56;5055603;28;20040;-63
2023/12/09 02:12:19;;;;;;;17.00;8.30;;;;;;;-13.60;68.97;100766.25;5094465;28;20075;-62
2023/12/09 02:14:47;;;;;;;35.67;9.38;;;;;;;-13.64;69.82;100757.06;5071297;28;20036;-63
2023/12/09 02:17:19;;;;;;;18.92;7.30;;;;;;;-13.63;69.53;100741.69;5110060;28;20096;-62
2023/12/09 02:19:45;;;;;;;18.40;9.68;;;;;;;-13.69;68.43;100752.09;5096610;28;20066;-62
2023/12/09 02:22:11;;;;;;;14.10;6.35;;;;;;;-13.65;69.60;100748.53;5099373;28;20028;-62
2023/12/09 02:24:37;;;;;;;14.75;7.35;;;;;;;-13.64;69.38;100744.31;5078243;28;20040;-62
2023/12/09 02:27:07;;;;;;;11.80;6.13;;;;;;;-13.66;69.37;100740.97;5102492;28;20043;-61
2023/12/09 02:29:36;;;;;;;14.98;7.80;;;;;;;-13.71;69.58;100745.38;5095361;28;20059;-62
2023/12/09 02:32:04;;;;;;;19.00;7.72;;;;;;;-13.66;69.53;100746.88;5097640;28;20036;-62
2023/12/09 02:34:30;;;;;;;21.75;8.50;;;;;;;-13.67;68.07;100745.22;5073482;28;20071;-62
2023/12/09 02:36:57;;;;;;;14.52;7.45;;;;;;;-13.78;69.01;100742.19;5095726;28;20097;-61
2023/12/09 02:39:22;;;;;;;19.63;8.63;;;;;;;-13.72;69.92;100742.00;5093566;28;20044;-62
2023/12/09 02:41:49;;;;;;;21.60;8.60;;;;;;;-13.80;70.11;100734.56;5099154;28;20028;-60
2023/12/09 02:44:14;;;;;;;17.60;8.18;;;;;;;-13.84;68.90;100737.28;5077573;28;20063;-60
2023/12/09 02:46:40;;;;;;;10.52;5.93;;;;;;;-13.75;69.60;100744.63;5082708;28;20040;-62
2023/12/09 02:49:05;;;;;;;21.27;8.50;;;;;;;-13.85;69.04;100736.47;5085228;28;20055;-60
2023/12/09 02:51:31;;;;;;;13.25;7.80;;;;;;;-13.74;70.52;100736.09;5072650;28;20049;-61
2023/12/09 02:53:57;;;;;;;27.25;6.95;;;;;;;-13.66;68.73;100739.25;5094078;28;20071;-61
2023/12/09 02:56:22;;;;;;;19.40;8.75;;;;;;;-13.65;70.17;100729.88;5076478;28;20040;-62
2023/12/09 02:58:48;;;;;;;14.68;7.18;;;;;;;-13.59;69.36;100738.13;5079757;28;20056;-62
2023/12/09 03:01:14;;;;;;;16.10;6.35;;;;;;;-13.60;68.45;100735.66;5079871;28;20067;-63
2023/12/09 03:03:39;;;;;;;16.95;9.60;;;;;;;-13.61;70.02;100736.56;5105245;28;20055;-62
2023/12/09 03:06:05;;;;;;;15.23;8.20;;;;;;;-13.56;69.92;100732.97;5111185;28;20470;-63
2023/12/09 03:08:30;;;;;;;17.90;8.60;;;;;;;-13.49;68.64;100736.13;5076160;28;20039;-62
2023/12/09 03:10:56;;;;;;;14.43;7.93;;;;;;;-13.58;69.67;100729.63;5083443;28;20040;-62
2023/12/09 03:13:23;;;;;;;21.73;8.70;;;;;;;-13.56;69.59;100738.06;5083995;28;20497;-62
2023/12/09 03:15:48;;;;;;;20.20;9.90;;;;;;;-13.45;69.52;100739.41;5082667;28;20036;-62
2023/12/09 03:18:14;;;;;;;16.27;8.55;;;;;;;-13.38;69.30;100740.84;5095745;28;20055;-62
2023/12/09 03:20:40;;;;;;;17.40;7.82;;;;;;;-13.46;69.94;100736.03;5097771;28;20557;-62
2023/12/09 03:23:06;;;;;;;16.40;7.03;;;;;;;-13.57;70.60;100735.56;5095317;28;20047;-62
2023/12/09 03:25:32;;;;;;;23.75;11.35;;;;;;;-13.63;70.37;100713.63;5078859;28;20162;-62
2023/12/09 03:27:58;;;;;;;20.20;8.68;;;;;;;-13.48;71.43;100737.78;5093508;28;20046;-61
2023/12/09 03:30:23;;;;;;;24.25;9.27;;;;;;;-13.44;69.58;100725.75;5109232;28;20122;-64
2023/12/09 03:32:49;;;;;;;20.00;9.43;;;;;;;-13.43;70.00;100735.09;5090746;28;20047;-61
2023/12/09 03:35:15;;;;;;;16.90;7.97;;;;;;;-13.49;69.54;100736.13;5091097;28;20032;-63
2023/12/09 03:37:40;;;;;;;13.45;6.50;;;;;;;-13.53;70.79;100734.56;5074104;28;20474;-61
2023/12/09 03:40:07;;;;;;;14.85;7.13;;;;;;;-13.44;69.81;100735.97;5102663;28;20065;-62
2023/12/09 03:42:32;;;;;;;21.77;10.52;;;;;;;-13.35;70.63;100733.94;5089858;28;20044;-61
2023/12/09 03:44:58;;;;;;;15.55;8.07;;;;;;;-13.49;70.23;100735.31;5086383;28;20395;-64
2023/12/09 03:47:24;;;;;;;23.45;9.57;;;;;;;-13.47;69.87;100729.25;5054401;28;20067;-61
2023/12/09 03:49:49;;;;;;;15.75;6.95;;;;;;;-13.39;70.51;100723.88;5093904;28;20479;-61
2023/12/09 03:52:15;;;;;;;16.25;8.25;;;;;;;-13.40;70.19;100740.91;5108392;28;20044;-61
2023/12/09 03:54:40;;;;;;;13.55;6.63;;;;;;;-13.49;69.25;100733.59;5083202;28;20028;-64
2023/12/09 03:57:06;;;;;;;13.07;7.13;;;;;;;-13.45;70.17;100734.31;5077338;28;20044;-61
2023/12/09 03:59:32;;;;;;;18.17;9.23;;;;;;;-13.43;69.77;100730.00;5089121;28;20028;-63
2023/12/09 04:01:58;;;;;;;18.77;8.85;;;;;;;-13.52;69.47;100724.31;5091306;28;20054;-61
2023/12/09 04:04:23;;;;;;;10.00;5.38;;;;;;;-13.41;69.47;100735.84;5073551;28;20027;-62
2023/12/09 04:06:49;;;;;;;17.27;7.63;;;;;;;-13.35;68.64;100733.94;5070071;28;20580;-63
2023/12/09 04:09:16;;;;;;;16.48;7.80;;;;;;;-13.33;68.26;100732.16;5091248;28;20413;-60
2023/12/09 04:11:43;;;;;;;13.52;7.32;;;;;;;-13.39;68.48;100729.00;5085245;28;20059;-62
2023/12/09 04:14:08;;;;;;;13.45;7.53;;;;;;;-13.34;68.73;100735.59;5085086;28;20123;-61
2023/12/09 04:16:34;;;;;;;12.23;6.93;;;;;;;-13.35;68.88;100735.66;5077696;28;20128;-62
2023/12/09 04:19:00;;;;;;;18.85;9.75;;;;;;;-13.27;68.30;100733.66;5084746;28;20056;-63
2023/12/09 04:21:26;;;;;;;13.40;5.85;;;;;;;-13.36;68.99;100737.38;5104148;28;20039;-63
2023/12/09 04:23:51;;;;;;;16.00;7.50;;;;;;;-13.39;68.03;100724.72;5089545;28;20086;-62
2023/12/09 04:26:17;;;;;;;16.35;7.60;;;;;;;-13.33;68.61;100731.34;5103920;28;20130;-63
2023/12/09 04:28:43;;;;;;;21.98;9.55;;;;;;;-13.30;69.03;100731.22;5099697;28;20466;-60
2023/12/09 04:31:08;;;;;;;11.90;5.90;;;;;;;-13.57;69.31;100697.31;5104743;28;20520;-63
2023/12/09 04:33:34;;;;;;;14.32;6.85;;;;;;;-13.27;69.04;100736.22;5110067;28;20052;-62
2023/12/09 04:35:59;;;;;;;21.40;9.25;;;;;;;-13.17;69.32;100741.84;5087084;28;20040;-61
2023/12/09 04:38:25;;;;;;;18.17;8.38;;;;;;;-13.22;69.03;100741.97;5078156;28;20106;-61
2023/12/09 04:40:51;;;;;;;16.50;7.93;;;;;;;-13.32;69.33;100735.56;5091052;28;20482;-63
2023/12/09 04:43:16;;;;;;;20.80;8.38;;;;;;;-13.35;68.45;100735.66;5119678;28;20039;-61
2023/12/09 04:45:42;;;;;;;16.80;9.23;;;;;;;-13.35;68.55;100733.09;5108528;28;20064;-63
2023/12/09 04:48:08;;;;;;;18.05;9.30;;;;;;;-13.29;69.60;100730.38;5082776;28;20043;-64
2023/12/09 04:50:33;;;;;;;20.65;7.20;;;;;;;-13.36;68.60;100737.38;5092969;28;20127;-62
2023/12/09 04:52:59;;;;;;;16.20;7.53;;;;;;;-13.43;68.04;100737.66;5095806;28;20109;-63
2023/12/09 04:55:26;;;;;;;20.75;9.75;;;;;;;-13.42;68.91;100726.53;5077034;28;20106;-61
2023/12/09 04:57:52;;;;;;;13.75;6.55;;;;;;;-13.45;69.58;100737.69;5113453;28;20047;-62
2023/12/09 05:00:17;;;;;;;15.13;6.70;;;;;;;-13.37;69.37;100742.53;5099294;28;20040;-63
2023/12/09 05:02:44;;;;;;;19.45;7.68;;;;;;;-13.37;68.88;100745.09;5092641;28;20216;-61
2023/12/09 05:05:09;;;;;;;20.23;8.27;;;;;;;-13.37;68.58;100735.72;5076079;28;20047;-61
2023/12/09 05:07:35;;;;;;;17.10;8.40;;;;;;;-13.33;68.85;100736.44;5090705;28;20040;-64
2023/12/09 05:10:01;;;;;;;14.60;7.40;;;;;;;-13.29;69.64;100741.41;5076344;28;20551;-62
2023/12/09 05:12:26;;;;;;;15.15;8.27;;;;;;;-13.19;68.79;100751.25;5097201;28;20047;-61
2023/12/09 05:14:52;;;;;;;23.60;10.23;;;;;;;-13.11;70.01;100752.66;5093242;28;20035;-62
2023/12/09 05:17:17;;;;;;;20.85;8.68;;;;;;;-13.06;69.71;100748.22;5102128;28;20044;-61
2023/12/09 05:19:43;;;;;;;17.95;9.13;;;;;;;-12.98;68.41;100742.84;5092907;28;20040;-64
2023/12/09 05:22:09;;;;;;;19.00;9.82;;;;;;;-12.85;68.27;100751.72;5090021;28;20050;-61
2023/12/09 05:24:35;;;;;;;19.90;9.20;;;;;;;-12.71;68.75;100747.81;5092137;28;20036;-60
2023/12/09 05:27:00;;;;;;;27.48;10.15;;;;;;;-12.67;67.59;100747.66;5094234;28;20070;-62
2023/12/09 05:29:26;;;;;;;21.25;8.98;;;;;;;-12.61;67.66;100751.72;5093133;28;20070;-62
2023/12/09 05:31:51;;;;;;;21.13;9.27;;;;;;;-12.50;67.53;100753.88;5085442;28;20040;-63
2023/12/09 05:34:17;;;;;;;16.65;8.73;;;;;;;-12.53;66.90;100748.88;5098154;28;20056;-62
2023/12/09 05:36:43;;;;;;;17.92;8.60;;;;;;;-12.53;65.28;100742.03;5076505;28;20090;-63
2023/12/09 05:39:09;;;;;;;17.27;8.00;;;;;;;-12.50;65.97;100748.75;5102932;28;20509;-61
2023/12/09 05:41:35;;;;;;;16.67;8.65;;;;;;;-12.50;66.27;100757.25;5092012;28;20036;-62
2023/12/09 05:44:00;;;;;;;15.73;7.10;;;;;;;-12.44;65.63;100751.06;5075867;28;20044;-62
2023/12/09 05:46:26;;;;;;;22.05;10.07;;;;;;;-12.44;66.24;100757.03;5071700;28;20441;-61
2023/12/09 05:48:51;;;;;;;19.05;7.72;;;;;;;-12.48;64.92;100755.47;5087407;28;20131;-61
2023/12/09 05:51:17;;;;;;;23.40;10.30;;;;;;;-12.52;65.74;100759.03;5084608;28;20088;-61
2023/12/09 05:53:43;;;;;;;21.17;9.82;;;;;;;-12.47;66.43;100769.06;5095944;28;20054;-62
2023/12/09 05:56:11;;;;;;;13.65;7.30;;;;;;;-12.51;65.53;100760.69;5079269;28;20036;-61
2023/12/09 05:58:39;;;;;;;21.58;9.10;;;;;;;-12.38;66.36;100758.50;5075697;28;20131;-63
2023/12/09 06:01:05;;;;;;;23.45;10.32;;;;;;;-12.39;66.16;100762.78;5081616;28;20029;-61
2023/12/09 06:03:31;;;;;;;27.25;9.45;;;;;;;-12.30;66.91;100755.69;5064274;28;20414;-61
2023/12/09 06:05:58;;;;;;;20.98;8.85;;;;;;;-12.27;65.73;100745.34;5094040;28;20036;-63
2023/12/09 06:08:24;;;;;;;22.23;9.35;;;;;;;-12.40;66.70;100752.66;5096316;28;20039;-62
2023/12/09 06:10:50;;;;;;;27.48;9.70;;;;;;;-12.41;65.89;100754.38;5114135;28;20047;-62
2023/12/09 06:13:16;;;;;;;22.25;8.95;;;;;;;-12.37;67.43;100755.09;5101120;28;20040;-62
2023/12/09 06:15:42;;;;;;;20.80;9.68;;;;;;;-12.43;65.52;100758.69;5111101;28;20050;-63
2023/12/09 06:18:08;;;;;;;16.15;8.73;;;;;;;-12.58;65.74;100751.63;5110723;28;20126;-62
2023/12/09 06:20:33;;;;;;;11.55;5.38;;;;;;;-12.77;65.93;100748.88;5110663;28;20035;-63
2023/12/09 06:22:59;;;;;;;19.80;7.25;;;;;;;-12.88;66.42;100750.97;5096754;28;20532;-63
2023/12/09 06:25:25;;;;;;;13.65;6.75;;;;;;;-12.87;67.49;100745.84;5105261;28;20050;-63
2023/12/09 06:27:51;;;;;;;14.07;7.28;;;;;;;-12.88;67.33;100748.44;5093161;28;20052;-63
2023/12/09 06:30:17;;;;;;;18.17;8.07;;;;;;;-12.81;66.16;100749.91;5085184;28;20036;-63
2023/12/09 06:32:43;;;;;;;16.95;8.45;;;;;;;-12.76;66.83;100747.16;5078441;28;20509;-61
2023/12/09 06:35:09;;;;;;;18.10;8.00;;;;;;;-12.69;66.42;100754.56;5078226;28;20085;-62
2023/12/09 06:37:34;;;;;;;21.25;9.90;;;;;;;-12.65;67.47;100753.53;5086543;28;20398;-62
2023/12/09 06:40:00;;;;;;;22.95;8.18;;;;;;;-12.62;66.94;100744.94;5090715;28;20036;-61
2023/12/09 06:42:26;;;;;;;22.48;10.35;;;;;;;-12.53;67.66;100744.59;5086663;28;20044;-61
2023/12/09 06:44:51;;;;;;;22.75;9.15;;;;;;;-12.62;66.36;100735.53;5097660;28;20069;-62
2023/12/09 06:47:17;;;;;;;21.20;9.80;;;;;;;-12.67;66.93;100737.47;5095325;28;20043;-65
2023/12/09 06:49:43;;;;;;;20.08;9.02;;;;;;;-12.66;67.56;100734.00;5111567;28;20101;-64
2023/12/09 06:52:09;;;;;;;20.55;8.35;;;;;;;-12.64;66.47;100736.53;5094719;28;20113;-64
2023/12/09 06:54:34;;;;;;;14.20;4.70;;;;;;;-12.78;66.92;100731.06;5099656;28;20551;-61
2023/12/09 06:57:00;;;;;;;16.05;7.70;;;;;;;-12.75;66.58;100731.78;5095682;28;20043;-62
2023/12/09 06:59:26;;;;;;;21.05;9.98;;;;;;;-12.78;66.76;100728.53;5076323;28;20036;-63
2023/12/09 07:01:56;;;;;;;29.15;11.20;;;;;;;-12.75;65.86;100726.69;5092948;28;20081;-64
2023/12/09 07:04:21;;;;;;;16.05;8.15;;;;;;;-12.69;66.70;100715.41;5100703;28;20051;-61
2023/12/09 07:06:47;;;;;;;19.20;9.82;;;;;;;-12.72;66.47;100713.81;5100905;28;20040;-64
2023/12/09 07:09:13;;;;;;;19.55;8.70;;;;;;;-12.89;65.72;100706.75;5090844;28;20063;-61
2023/12/09 07:11:38;;;;;;;15.77;7.95;;;;;;;-12.78;65.45;100695.34;5096108;28;20040;-64
2023/12/09 07:14:05;;;;;;;11.35;6.43;;;;;;;-12.81;65.67;100703.94;5090822;28;20082;-62
2023/12/09 07:16:31;;;;;;;19.13;7.97;;;;;;;-12.74;66.05;100701.97;5102966;28;20039;-63
2023/12/09 07:18:59;;;;;;;19.02;8.90;;;;;;;-12.68;65.68;100702.56;5092538;28;20040;-61
2023/12/09 07:21:29;;;;;;;17.10;7.65;;;;;;;-12.74;64.88;100695.13;5096160;28;20071;-62
2023/12/09 07:23:55;;;;;;;14.25;7.47;;;;;;;-12.77;64.42;100691.88;5092680;28;20085;-63
2023/12/09 07:26:21;;;;;;;13.75;6.80;;;;;;;-12.70;65.12;100690.78;5090519;28;20050;-64
2023/12/09 07:28:47;;;;;;;14.18;6.57;;;;;;;-12.82;65.38;100686.97;5092582;28;20565;-62
2023/12/09 07:31:14;;;;;;;18.77;7.10;;;;;;;-12.84;65.55;100679.34;5097009;28;20043;-63
2023/12/09 07:33:40;;;;;;;17.75;6.78;;;;;;;-12.93;65.22;100664.38;5110776;28;20096;-63
2023/12/09 07:36:06;;;;;;;21.80;8.43;;;;;;;-12.84;64.96;100676.78;5102486;28;20122;-63
2023/12/09 07:38:31;;;;;;;12.40;6.10;;;;;;;-12.73;64.63;100678.09;5112516;27;20039;-65
2023/12/09 07:40:57;;;;;;;12.68;5.70;;;;;;;-12.74;64.58;100672.16;5110756;28;20035;-65
2023/12/09 07:43:23;;;;;;;11.30;6.13;;;;;;;-12.72;65.33;100675.50;5093894;28;20052;-64
2023/12/09 07:45:51;;;;;;;16.20;6.78;;;;;;;-12.67;65.28;100690.66;5110844;28;20507;-62
2023/12/09 07:48:18;;;;;;;10.77;5.68;;;;;;;-12.80;65.11;100685.16;5059197;28;20096;-65
2023/12/09 07:50:44;;;;;;;15.65;7.63;;;;;;;-12.71;64.59;100692.47;5111487;27;20051;-66
2023/12/09 07:53:10;;;;;;;18.48;8.20;;;;;;;-12.54;64.56;100683.34;5110635;28;20047;-65
2023/12/09 07:55:36;;;;;;;11.82;6.43;;;;;;;-12.56;63.76;100685.13;5111173;28;20043;-67
2023/12/09 07:58:02;;;;;;;17.02;8.60;;;;;;;-12.59;63.35;100686.06;5110550;28;20069;-64
2023/12/09 08:00:28;;;;;;;8.73;4.90;;;;;;;-12.68;64.09;100692.34;5112101;28;20048;-67
2023/12/09 08:02:57;;;;;;;17.77;7.72;;;;;;;-12.72;64.47;100690.81;5110461;28;20090;-65
2023/12/09 08:05:23;;;;;;;14.27;8.55;;;;;;;-12.67;64.90;100691.47;5109969;28;20038;-65
2023/12/09 08:07:49;;;;;;;10.77;5.75;;;;;;;-12.59;65.11;100692.03;5111649;28;20510;-65
2023/12/09 08:10:15;;;;;;;14.93;6.85;;;;;;;-12.59;63.98;100679.25;5095362;28;20080;-65
2023/12/09 08:12:41;;;;;;;22.60;9.48;;;;;;;-12.55;64.86;100686.81;5093097;28;20051;-67
2023/12/09 08:15:07;;;;;;;18.30;6.43;;;;;;;-12.59;64.34;100689.47;5088300;28;20074;-63
2023/12/09 08:17:33;;;;;;;23.05;9.98;;;;;;;-12.45;64.18;100683.00;5084728;28;20057;-63
2023/12/09 08:19:59;;;;;;;20.75;9.00;;;;;;;-12.47;63.35;100685.63;5111339;28;20544;-63
2023/12/09 08:22:24;;;;;;;13.18;6.60;;;;;;;-12.34;64.50;100675.75;5101747;28;20044;-64
2023/12/09 08:24:50;;;;;;;17.63;6.43;;;;;;;-12.37;62.86;100675.88;5093374;28;20156;-62
2023/12/09 08:27:16;;;;;;;18.50;7.65;;;;;;;-12.44;64.11;100671.88;5112155;28;20066;-62
2023/12/09 08:29:41;;;;;;;18.33;9.10;;;;;;;-12.46;63.40;100668.56;5111335;28;20511;-64
2023/12/09 08:32:09;;;;;;;18.95;8.65;;;;;;;-12.25;65.68;100664.34;5111456;28;20079;-63
2023/12/09 08:34:34;;;;;;;19.35;8.73;;;;;;;-12.30;64.24;100649.16;5108217;28;20046;-62
2023/12/09 08:37:00;;;;;;;15.57;7.90;;;;;;;-12.22;64.36;100662.47;5111327;28;20036;-63
2023/12/09 08:39:26;;;;;;;18.33;7.93;;;;;;;-12.19;63.63;100667.47;5110920;28;20071;-63
2023/12/09 08:41:52;;;;;;;11.68;6.70;;;;;;;-12.27;63.42;100661.81;5076246;28;20557;-62
2023/12/09 08:44:18;;;;;;;21.00;9.23;;;;;;;-12.19;63.74;100659.81;5105786;28;20081;-62
2023/12/09 08:46:43;;;;;;;18.90;8.90;;;;;;;-12.28;62.66;100657.63;5069615;28;20036;-63
2023/12/09 08:49:09;;;;;;;13.88;7.00;;;;;;;-12.31;63.07;100649.25;5088897;28;20603;-61
2023/12/09 08:51:47;;;;;;;13.30;6.88;;;;;;;-12.32;63.06;100658.66;5110871;28;20063;-63
2023/12/09 08:54:13;;;;;;;14.90;7.45;;;;;;;-12.30;63.07;100646.63;5111370;28;20086;-61
2023/12/09 08:56:39;;;;;;;11.65;6.47;;;;;;;-12.41;63.25;100643.66;5111307;28;20071;-62
2023/12/09 08:59:10;;;;;;;16.02;7.60;;;;;;;-12.34;63.03;100631.50;5109641;28;20067;-62
2023/12/09 09:01:35;;;;;;;;;;;;;;;-12.27;63.67;100635.44;5076422;28;20069;-61
2023/12/09 09:04:02;;;;;;;7.53;4.80;;;;;;;-12.22;63.94;100647.16;5110789;28;19928;-61
2023/12/09 09:06:28;;;;;;;13.07;6.30;;;;;;;-12.32;63.78;100643.31;5111207;28;20028;-62
2023/12/09 09:08:54;;;;;;;13.07;6.60;;;;;;;-12.34;62.62;100636.59;5072657;28;20037;-62
2023/12/09 09:11:20;;;;;;;16.23;7.57;;;;;;;-12.26;63.02;100637.94;5110988;28;20104;-62
2023/12/09 09:13:46;;;;;;;15.07;6.60;;;;;;;-12.29;63.01;100638.06;5089926;28;20040;-63
2023/12/09 09:16:14;;;;;;;20.33;9.02;;;;;;;-12.22;63.03;100638.66;5110107;28;20051;-63
2023/12/09 09:18:39;;;;;;;11.63;6.95;;;;;;;-12.21;63.37;100638.56;5101029;28;20055;-61
2023/12/09 09:21:05;;;;;;;16.55;6.95;;;;;;;-12.22;63.59;100642.03;5112693;28;20054;-62
2023/12/09 09:23:31;;;;;;;20.65;10.45;;;;;;;-12.07;62.92;100632.91;5095181;28;20499;-61
2023/12/09 09:25:57;;;;;;;26.67;11.93;;;;;;;-11.94;63.38;100621.31;5096502;28;20035;-63
2023/12/09 09:28:23;;;;;;;20.00;9.77;;;;;;;-11.80;62.84;100622.41;5113693;28;20433;-61
2023/12/09 09:30:49;;;;;;;16.23;8.98;;;;;;;-11.86;62.97;100625.25;5098854;28;20122;-62
2023/12/09 09:33:14;;;;;;;13.93;7.82;;;;;;;-11.76;61.96;100631.63;5114485;28;20040;-61
2023/12/09 09:35:40;;;;;;;12.77;6.00;;;;;;;-12.01;61.47;100619.88;5114527;28;20035;-63
2023/12/09 09:38:06;;;;;;;14.82;6.55;;;;;;;-12.13;62.62;100628.06;5114695;28;20447;-62
2023/12/09 09:40:32;;;;;;;18.67;8.60;;;;;;;-12.01;63.01;100617.31;5114073;28;20063;-62
2023/12/09 09:43:00;;;;;;;12.93;6.18;;;;;;;-11.97;61.82;100618.00;5094138;28;20072;-62
2023/12/09 09:45:27;;;;;;;15.45;7.88;;;;;;;-11.96;62.58;100610.28;5105578;28;20138;-62
2023/12/09 09:47:55;;;;;;;12.13;6.43;;;;;;;-12.00;61.53;100608.78;5113020;28;20050;-64
2023/12/09 09:50:25;;;;;;;16.83;7.47;;;;;;;-11.92;62.46;100604.16;5113861;28;20051;-62
2023/12/09 09:52:51;;;;;;;;;;;;;;;-11.81;62.02;100608.78;5079676;28;20395;-63
2023/12/09 09:55:19;;;;;;;15.80;7.32;;;;;;;-11.62;61.47;100598.59;5105171;28;20026;-62
2023/12/09 09:57:46;;;;;;;15.10;6.15;;;;;;;-11.60;61.62;100606.22;5112868;28;20071;-63
2023/12/09 10:00:14;;;;;;;15.23;7.05;;;;;;;-11.70;61.50;100601.50;5095838;28;20044;-64
2023/12/09 10:02:48;;;;;;;13.98;6.57;;;;;;;-11.77;61.10;100605.19;5077977;28;20186;-63
2023/12/09 10:05:16;;;;;;;9.15;5.85;;;;;;;-11.83;60.78;100602.06;5112479;28;20047;-63
2023/12/09 10:07:43;;;;;;;14.05;6.68;;;;;;;-11.79;61.60;100599.34;5113695;28;20059;-63
2023/12/09 10:10:10;;;;;;;13.85;7.32;;;;;;;-11.69;61.57;100592.09;5112108;28;20050;-64
2023/12/09 10:12:36;;;;;;;13.57;7.35;;;;;;;-11.64;60.71;100594.47;5111839;28;20587;-63
2023/12/09 10:15:03;;;;;;;12.23;5.63;;;;;;;-11.64;60.39;100592.72;5111907;28;20055;-64
2023/12/09 10:17:31;;;;;;;16.80;8.07;;;;;;;-11.77;60.41;100596.69;5111559;28;20412;-62
2023/12/09 10:20:00;;;;;;;18.55;7.57;;;;;;;-11.70;61.39;100586.16;5112135;28;20035;-61
2023/12/09 10:22:27;;;;;;;19.83;8.25;;;;;;;-11.55;60.28;100587.22;5100996;27;20125;-62
2023/12/09 10:24:54;;;;;;;24.00;8.02;;;;;;;-11.57;60.94;100578.75;5104615;28;20035;-64
2023/12/09 10:27:24;;;;;;;10.25;5.80;;;;;;;-11.49;61.33;100578.44;5113341;28;20043;-63
2023/12/09 10:29:51;;;;;;;17.45;7.82;;;;;;;-11.66;60.65;100577.44;5099482;28;20043;-63
2023/12/09 10:32:18;;;;;;;17.95;7.88;;;;;;;-11.55;61.22;100581.25;5082375;28;20050;-62
2023/12/09 10:34:43;;;;;;;16.27;8.80;;;;;;;-11.33;61.05;100588.81;5101922;28;20054;-62
2023/12/09 10:37:09;;;;;;;16.88;7.70;;;;;;;-11.20;60.94;100579.69;5097955;28;20477;-62
2023/12/09 10:39:36;;;;;;;16.65;9.20;;;;;;;-11.22;60.47;100577.19;5105752;28;20097;-63
2023/12/09 10:42:05;;;;;;;19.85;8.98;;;;;;;-11.22;61.73;100584.03;5077449;28;20040;-63
2023/12/09 10:44:31;;;;;;;17.95;8.40;;;;;;;-11.26;60.63;100590.22;5111394;28;20051;-63
2023/12/09 10:46:57;;;;;;;22.27;9.00;;;;;;;-11.28;61.04;100577.47;5112767;28;20044;-62
2023/12/09 10:49:22;;;;;;;16.73;6.72;;;;;;;-11.42;60.00;100569.56;5113117;28;20118;-63
2023/12/09 10:51:48;;;;;;;18.30;7.40;;;;;;;-11.59;60.53;100574.59;5094535;28;20627;-63
2023/12/09 10:54:14;;;;;;;10.18;6.50;;;;;;;-11.78;61.47;100572.84;5111300;28;20448;-62
2023/12/09 10:56:40;;;;;;;11.77;6.78;;;;;;;-11.79;61.75;100572.91;5113007;28;20038;-64
2023/12/09 10:59:06;;;;;;;16.25;7.13;;;;;;;-11.82;61.50;100578.16;5094381;28;20086;-64
2023/12/09 11:01:32;;;;;;;11.85;6.65;;;;;;;-11.77;61.83;100571.13;5088657;28;20040;-60
2023/12/09 11:03:58;;;;;;;17.10;8.55;;;;;;;-11.83;61.70;100571.38;5080484;28;20040;-64